Terminal Aerodrome Forecast
Issued by NWS

Home | Current Version | Previous Version | Graphics & Text | Print | Product List | Glossary On
Versions: 1 2 3 4 5 6 7 8 9 10 11 12 13 14
000
FTUS43 KIWX 150540
TAFSBN
TAF
KSBN 150540Z 1506/1606 22008KT P6SM SCT035 BKN100
     FM151200 23010KT P6SM BKN035
     FM151400 23013G19KT 4SM -SHSN OVC025
     FM151800 27015G23KT P6SM VCSH BKN025
     FM152300 27012KT 5SM -SHSN BKN030
     FM160500 23009KT P6SM BKN030=

USA.gov is the U.S. government's official web portal to all federal, state and local government web resources and services.